Time;durP1;ratioP1;P1;durP2;ratioP2;P2;SDS_P1;SDS_P2;PMS_P1;PMS_P2;Temp;Humidity;BMP_temperature;BMP_pressure;BME280_temperature;BME280_humidity;BME280_pressure;Samples;Min_cycle;Max_cycle;Signal;HPM_P1;HPM_P2
2023/12/18 00:01:49;;;;;;;;;;;;;;;;;;5065701;28;4916;-64
2023/12/18 00:04:15;;;;;;;;;;;;;;;;;;5056750;28;1065;-65
2023/12/18 00:06:40;;;;;;;;;;;;;;;;;;5067197;28;4637;-64
2023/12/18 00:09:05;;;;;;;;;;;;;;;;;;5066549;28;5003;-65
2023/12/18 00:11:31;;;;;;;;;;;;;;;;;;5042225;28;5210;-65
2023/12/18 00:13:56;;;;;;;;;;;;;;;;;;5053126;28;4530;-65
2023/12/18 00:16:21;;;;;;;;;;;;;;;;;;5053511;28;4912;-66
2023/12/18 00:18:47;;;;;;;;;;;;;;;;;;5054595;28;3895;-65
2023/12/18 00:21:13;;;;;;;;;;;;;;;;;;5049674;28;4983;-64
2023/12/18 00:23:38;;;;;;;;;;;;;;;;;;5050830;28;5143;-66
2023/12/18 00:26:03;;;;;;;;;;;;;;;;;;5052602;28;5776;-67
2023/12/18 00:28:29;;;;;;;;;;;;;;;;;;5057242;28;5269;-64
2023/12/18 00:30:54;;;;;;;;;;;;;;;;;;5063389;28;1294;-65
2023/12/18 00:33:19;;;;;;;;;;;;;;;;;;5063907;28;5154;-65
2023/12/18 00:35:44;;;;;;;;;;;;;;;;;;5054581;28;4710;-64
2023/12/18 00:38:10;;;;;;;;;;;;;;;;;;5062006;28;5005;-65
2023/12/18 00:40:35;;;;;;;;;;;;;;;;;;5057972;28;5136;-67
2023/12/18 00:43:00;;;;;;;;;;;;;;;;;;5059356;28;3378;-65
2023/12/18 00:45:26;;;;;;;;;;;;;;;;;;5047210;28;4904;-65
2023/12/18 00:47:52;;;;;;;;;;;;;;;;;;5058745;28;5018;-68
2023/12/18 00:50:17;;;;;;;;;;;;;;;;;;5055058;28;4550;-66
2023/12/18 00:52:43;;;;;;;;;;;;;;;;;;5062426;28;5230;-66
2023/12/18 00:55:08;;;;;;;;;;;;;;;;;;5061988;28;1528;-66
2023/12/18 00:57:34;;;;;;;;;;;;;;;;;;5057028;28;4414;-65
2023/12/18 00:59:59;;;;;;;;;;;;;;;;;;5065633;28;5143;-66
2023/12/18 01:02:24;;;;;;;;;;;;;;;;;;5055152;28;5095;-65
2023/12/18 01:04:51;;;;;;;;;;;;;;;;;;5065444;28;4968;-66
2023/12/18 01:07:16;;;;;;;;;;;;;;;;;;5063704;28;3324;-66
2023/12/18 01:09:42;;;;;;;;;;;;;;;;;;5072954;28;6138;-66
2023/12/18 01:12:07;;;;;;;;;;;;;;;;;;5056102;28;5106;-67
2023/12/18 01:14:32;;;;;;;;;;;;;;;;;;5050117;28;5098;-66
2023/12/18 01:16:58;;;;;;;;;;;;;;;;;;5057501;28;4961;-65
2023/12/18 01:19:23;;;;;;;;;;;;;;;;;;5057882;28;5078;-65
2023/12/18 01:21:48;;;;;;;;;;;;;;;;;;5050125;28;3459;-65
2023/12/18 01:24:13;;;;;;;;;;;;;;;;;;5059301;28;4631;-65
2023/12/18 01:26:39;;;;;;;;;;;;;;;;;;5049557;28;5130;-66
2023/12/18 01:29:04;;;;;;;;;;;;;;;;;;5050514;28;5156;-66
2023/12/18 01:31:30;;;;;;;;;;;;;;;;;;5053920;28;4505;-65
2023/12/18 01:33:57;;;;;;;;;;;;;;;;;;5074748;28;3323;-65
2023/12/18 01:36:22;;;;;;;;;;;;;;;;;;5059673;28;5112;-65
2023/12/18 01:38:48;;;;;;;;;;;;;;;;;;5072773;28;4617;-66
2023/12/18 01:41:13;;;;;;;;;;;;;;;;;;5053020;28;4584;-65
2023/12/18 01:43:38;;;;;;;;;;;;;;;;;;5060501;28;5071;-66
2023/12/18 01:46:04;;;;;;;;;;;;;;;;;;5049366;28;3902;-66
2023/12/18 01:48:29;;;;;;;;;;;;;;;;;;5046840;28;5336;-65
2023/12/18 01:50:55;;;;;;;;;;;;;;;;;;5062975;28;4910;-67
2023/12/18 01:53:21;;;;;;;;;;;;;;;;;;5052685;28;5099;-66
2023/12/18 01:55:46;;;;;;;;;;;;;;;;;;5050767;28;4919;-65
2023/12/18 01:58:12;;;;;;;;;;;;;;;;;;5068090;28;3399;-65
2023/12/18 02:00:37;;;;;;;;;;;;;;;;;;5069256;28;5028;-65
2023/12/18 02:03:02;;;;;;;;;;;;;;;;;;5036703;28;5040;-64
2023/12/18 02:05:28;;;;;;;;;;;;;;;;;;5055128;28;4549;-64
2023/12/18 02:07:53;;;;;;;;;;;;;;;;;;5051047;28;5109;-67
2023/12/18 02:10:18;;;;;;;;;;;;;;;;;;5065431;28;5432;-64
2023/12/18 02:12:43;;;;;;;;;;;;;;;;;;5047986;28;3484;-64
2023/12/18 02:15:09;;;;;;;;;;;;;;;;;;5056837;28;5104;-66
2023/12/18 02:17:34;;;;;;;;;;;;;;;;;;5054254;28;5152;-65
2023/12/18 02:20:06;;;;;;;;;;;;;;;;;;5071681;28;4515;-65
2023/12/18 02:22:50;;;;;;;;;;;;;;;;;;5056745;28;4663;-66
2023/12/18 02:25:15;;;;;;;;;;;;;;;;;;5058150;28;3999;-67
2023/12/18 02:27:40;;;;;;;;;;;;;;;;;;5053230;28;5009;-65
2023/12/18 02:30:06;;;;;;;;;;;;;;;;;;5058228;28;4512;-65
2023/12/18 02:32:31;;;;;;;;;;;;;;;;;;5051373;28;5138;-66
2023/12/18 02:34:57;;;;;;;;;;;;;;;;;;5052814;28;4902;-66
2023/12/18 02:37:23;;;;;;;;;;;;;;;;;;5070396;28;5078;-67
2023/12/18 02:39:48;;;;;;;;;;;;;;;;;;5066505;28;3851;-66
2023/12/18 02:42:14;;;;;;;;;;;;;;;;;;5057106;28;5035;-65
2023/12/18 02:44:39;;;;;;;;;;;;;;;;;;5047289;28;4983;-66
2023/12/18 02:47:04;;;;;;;;;;;;;;;;;;5062070;28;5227;-66
2023/12/18 02:49:29;;;;;;;;;;;;;;;;;;5064868;28;5046;-66
2023/12/18 02:51:55;;;;;;;;;;;;;;;;;;5059008;28;5184;-69
2023/12/18 02:54:20;;;;;;;;;;;;;;;;;;5058161;28;5032;-66
2023/12/18 02:56:45;;;;;;;;;;;;;;;;;;5057815;28;4733;-66
2023/12/18 02:59:11;;;;;;;;;;;;;;;;;;5059358;28;5063;-67
2023/12/18 03:01:36;;;;;;;;;;;;;;;;;;5060982;28;5100;-66
2023/12/18 03:04:02;;;;;;;;;;;;;;;;;;5070522;28;1037;-66
2023/12/18 03:06:28;;;;;;;;;;;;;;;;;;5051548;28;5307;-66
2023/12/18 03:08:53;;;;;;;;;;;;;;;;;;5060280;28;4509;-66
2023/12/18 03:11:19;;;;;;;;;;;;;;;;;;5060578;28;5148;-65
2023/12/18 03:13:44;;;;;;;;;;;;;;;;;;5061639;28;5263;-68
2023/12/18 03:16:09;;;;;;;;;;;;;;;;;;5064671;28;3426;-66
2023/12/18 03:18:35;;;;;;;;;;;;;;;;;;5040295;28;4999;-67
2023/12/18 03:21:00;;;;;;;;;;;;;;;;;;5060276;28;5089;-67
2023/12/18 03:23:25;;;;;;;;;;;;;;;;;;5057649;28;4600;-66
2023/12/18 03:25:51;;;;;;;;;;;;;;;;;;5058010;28;5014;-65
2023/12/18 03:28:17;;;;;;;;;;;;;;;;;;5051574;28;3403;-66
2023/12/18 03:30:43;;;;;;;;;;;;;;;;;;5060571;28;5319;-68
2023/12/18 03:33:08;;;;;;;;;;;;;;;;;;5051099;28;4783;-64
2023/12/18 03:35:33;;;;;;;;;;;;;;;;;;5055557;28;5200;-65
2023/12/18 03:37:59;;;;;;;;;;;;;;;;;;5055764;28;5095;-66
2023/12/18 03:40:24;;;;;;;;;;;;;;;;;;5046720;28;5238;-65
2023/12/18 03:42:49;;;;;;;;;;;;;;;;;;5057336;28;3386;-64
2023/12/18 03:45:14;;;;;;;;;;;;;;;;;;5049476;28;4930;-65
2023/12/18 03:47:40;;;;;;;;;;;;;;;;;;5055311;28;5070;-65
2023/12/18 03:50:05;;;;;;;;;;;;;;;;;;5048433;28;5007;-65
2023/12/18 03:52:31;;;;;;;;;;;;;;;;;;5056433;28;5168;-65
2023/12/18 03:54:56;;;;;;;;;;;;;;;;;;5067734;28;1543;-66
2023/12/18 03:57:21;;;;;;;;;;;;;;;;;;5060283;28;4793;-65
2023/12/18 03:59:46;;;;;;;;;;;;;;;;;;5064378;28;4499;-66
2023/12/18 04:02:12;;;;;;;;;;;;;;;;;;5053273;28;4980;-65
2023/12/18 04:04:37;;;;;;;;;;;;;;;;;;5054588;28;5124;-66
2023/12/18 04:07:02;;;;;;;;;;;;;;;;;;5067719;28;1918;-67
2023/12/18 04:09:28;;;;;;;;;;;;;;;;;;5064248;28;5240;-67
2023/12/18 04:11:53;;;;;;;;;;;;;;;;;;5033709;28;5024;-66
2023/12/18 04:14:18;;;;;;;;;;;;;;;;;;5055318;28;6059;-66
2023/12/18 04:16:43;;;;;;;;;;;;;;;;;;5054037;28;5033;-65
2023/12/18 04:19:09;;;;;;;;;;;;;;;;;;5062794;28;3358;-65
2023/12/18 04:21:34;;;;;;;;;;;;;;;;;;5064053;28;5124;-65
2023/12/18 04:23:59;;;;;;;;;;;;;;;;;;5057159;28;5214;-65
2023/12/18 04:26:24;;;;;;;;;;;;;;;;;;5064669;28;5244;-65
2023/12/18 04:28:50;;;;;;;;;;;;;;;;;;5064361;28;5164;-66
2023/12/18 04:31:19;;;;;;;;;;;;;;;;;;5055719;28;3605;-65
2023/12/18 04:33:44;;;;;;;;;;;;;;;;;;5066079;28;6088;-65
2023/12/18 04:36:10;;;;;;;;;;;;;;;;;;5063816;28;4501;-65
2023/12/18 04:38:35;;;;;;;;;;;;;;;;;;5057776;28;5010;-65
2023/12/18 04:41:01;;;;;;;;;;;;;;;;;;5062170;28;5024;-65
2023/12/18 04:43:28;;;;;;;;;;;;;;;;;;5056755;28;4991;-66
2023/12/18 04:45:53;;;;;;;;;;;;;;;;;;5045390;28;3424;-66
2023/12/18 04:48:18;;;;;;;;;;;;;;;;;;5057292;28;4984;-65
2023/12/18 04:50:44;;;;;;;;;;;;;;;;;;5057497;28;5031;-65
2023/12/18 04:53:09;;;;;;;;;;;;;;;;;;5057663;28;5151;-65
2023/12/18 04:55:34;;;;;;;;;;;;;;;;;;5060811;28;4487;-65
2023/12/18 04:58:00;;;;;;;;;;;;;;;;;;5049211;28;3327;-65
2023/12/18 05:00:25;;;;;;;;;;;;;;;;;;5056645;28;4696;-66
2023/12/18 05:02:50;;;;;;;;;;;;;;;;;;5056624;28;4668;-66
2023/12/18 05:05:15;;;;;;;;;;;;;;;;;;5066963;28;5044;-65
2023/12/18 05:07:41;;;;;;;;;;;;;;;;;;5062342;28;5065;-65
2023/12/18 05:10:06;;;;;;;;;;;;;;;;;;5060152;28;3355;-66
2023/12/18 05:12:31;;;;;;;;;;;;;;;;;;5055406;28;4927;-67
2023/12/18 05:14:57;;;;;;;;;;;;;;;;;;5065725;28;4975;-66
2023/12/18 05:17:22;;;;;;;;;;;;;;;;;;5057823;28;4954;-66
2023/12/18 05:19:47;;;;;;;;;;;;;;;;;;5059750;28;5043;-65
2023/12/18 05:22:13;;;;;;;;;;;;;;;;;;5062131;28;3307;-64
2023/12/18 05:24:38;;;;;;;;;;;;;;;;;;5058231;28;5073;-65
2023/12/18 05:27:03;;;;;;;;;;;;;;;;;;5036274;28;4985;-65
2023/12/18 05:29:29;;;;;;;;;;;;;;;;;;5059487;28;4532;-65
2023/12/18 05:31:54;;;;;;;;;;;;;;;;;;5060895;28;5095;-65
2023/12/18 05:34:19;;;;;;;;;;;;;;;;;;5066402;28;5580;-66
2023/12/18 05:36:45;;;;;;;;;;;;;;;;;;5058802;28;3559;-66
2023/12/18 05:39:10;;;;;;;;;;;;;;;;;;5054303;28;5119;-66
2023/12/18 05:41:36;;;;;;;;;;;;;;;;;;5054021;28;5000;-65
2023/12/18 05:44:01;;;;;;;;;;;;;;;;;;5052779;28;5163;-66
2023/12/18 05:46:26;;;;;;;;;;;;;;;;;;5049369;28;4955;-65
2023/12/18 05:48:52;;;;;;;;;;;;;;;;;;5061140;28;3332;-65
2023/12/18 05:51:18;;;;;;;;;;;;;;;;;;5047764;28;4503;-65
2023/12/18 05:53:43;;;;;;;;;;;;;;;;;;5047912;28;5489;-66
2023/12/18 05:56:09;;;;;;;;;;;;;;;;;;5053282;28;5108;-65
2023/12/18 05:58:34;;;;;;;;;;;;;;;;;;5053065;28;4535;-64
2023/12/18 06:00:59;;;;;;;;;;;;;;;;;;5056630;28;3463;-65
2023/12/18 06:03:25;;;;;;;;;;;;;;;;;;5051748;28;4677;-65
2023/12/18 06:05:50;;;;;;;;;;;;;;;;;;5049759;28;5353;-65
2023/12/18 06:08:15;;;;;;;;;;;;;;;;;;5062028;28;5011;-65
2023/12/18 06:10:41;;;;;;;;;;;;;;;;;;5053800;28;4674;-66
2023/12/18 06:13:06;;;;;;;;;;;;;;;;;;5053471;28;3395;-65
2023/12/18 06:15:31;;;;;;;;;;;;;;;;;;5055927;28;5113;-66
2023/12/18 06:17:57;;;;;;;;;;;;;;;;;;5047564;28;5112;-65
2023/12/18 06:20:22;;;;;;;;;;;;;;;;;;5055857;28;5041;-66
2023/12/18 06:22:47;;;;;;;;;;;;;;;;;;5045950;28;5067;-66
2023/12/18 06:25:12;;;;;;;;;;;;;;;;;;5058486;28;3457;-66
2023/12/18 06:27:38;;;;;;;;;;;;;;;;;;5046866;28;5121;-65
2023/12/18 06:30:03;;;;;;;;;;;;;;;;;;5051562;28;4775;-66
2023/12/18 06:32:29;;;;;;;;;;;;;;;;;;5051827;28;5751;-66
2023/12/18 06:34:54;;;;;;;;;;;;;;;;;;5038957;28;4924;-66
2023/12/18 06:37:19;;;;;;;;;;;;;;;;;;5061302;28;4954;-66
2023/12/18 06:39:45;;;;;;;;;;;;;;;;;;5046168;28;3869;-65
2023/12/18 06:42:10;;;;;;;;;;;;;;;;;;5047538;28;4683;-65
2023/12/18 06:44:36;;;;;;;;;;;;;;;;;;5053163;28;4518;-66
2023/12/18 06:47:01;;;;;;;;;;;;;;;;;;5051804;28;5054;-66
2023/12/18 06:49:26;;;;;;;;;;;;;;;;;;5054857;28;4887;-66
2023/12/18 06:51:52;;;;;;;;;;;;;;;;;;5049017;28;5115;-65
2023/12/18 06:54:17;;;;;;;;;;;;;;;;;;5049535;28;5045;-67
2023/12/18 06:56:42;;;;;;;;;;;;;;;;;;5049024;28;5129;-65
2023/12/18 06:59:08;;;;;;;;;;;;;;;;;;5054440;28;5736;-67
2023/12/18 07:01:33;;;;;;;;;;;;;;;;;;5045719;28;4543;-66
2023/12/18 07:03:58;;;;;;;;;;;;;;;;;;5052341;28;3429;-65
2023/12/18 07:06:23;;;;;;;;;;;;;;;;;;5047846;28;5069;-64
2023/12/18 07:08:49;;;;;;;;;;;;;;;;;;5051893;28;5012;-65
2023/12/18 07:11:14;;;;;;;;;;;;;;;;;;5044988;28;4532;-67
2023/12/18 07:13:39;;;;;;;;;;;;;;;;;;5054122;28;4484;-64
2023/12/18 07:16:05;;;;;;;;;;;;;;;;;;5049834;28;3421;-65
2023/12/18 07:18:30;;;;;;;;;;;;;;;;;;5058172;28;4652;-66
2023/12/18 07:20:56;;;;;;;;;;;;;;;;;;5078906;28;4981;-70
2023/12/18 07:23:21;;;;;;;;;;;;;;;;;;5056523;28;5111;-65
2023/12/18 07:25:46;;;;;;;;;;;;;;;;;;5055423;28;5073;-65
2023/12/18 07:28:11;;;;;;;;;;;;;;;;;;5051152;28;3461;-66
2023/12/18 07:30:37;;;;;;;;;;;;;;;;;;5060936;28;5029;-66
2023/12/18 07:33:02;;;;;;;;;;;;;;;;;;5055438;28;5340;-66
2023/12/18 07:35:28;;;;;;;;;;;;;;;;;;5063779;28;5134;-66
2023/12/18 07:37:53;;;;;;;;;;;;;;;;;;5067536;28;5277;-65
2023/12/18 07:40:18;;;;;;;;;;;;;;;;;;5062417;28;5170;-67
2023/12/18 07:42:43;;;;;;;;;;;;;;;;;;5068782;28;2546;-64
2023/12/18 07:45:09;;;;;;;;;;;;;;;;;;5059198;28;4789;-65
2023/12/18 07:47:37;;;;;;;;;;;;;;;;;;5055920;28;5099;-65
2023/12/18 07:50:03;;;;;;;;;;;;;;;;;;5062812;28;4520;-65
2023/12/18 07:52:28;;;;;;;;;;;;;;;;;;5068327;28;5289;-64
2023/12/18 07:54:53;;;;;;;;;;;;;;;;;;5065745;28;1421;-65
2023/12/18 07:57:19;;;;;;;;;;;;;;;;;;5060787;28;5012;-64
2023/12/18 07:59:44;;;;;;;;;;;;;;;;;;5063604;28;5094;-65
2023/12/18 08:02:09;;;;;;;;;;;;;;;;;;5042658;28;5066;-65
2023/12/18 08:04:35;;;;;;;;;;;;;;;;;;5059645;28;5166;-65
2023/12/18 08:07:00;;;;;;;;;;;;;;;;;;5058369;28;3442;-65
2023/12/18 08:09:26;;;;;;;;;;;;;;;;;;5058720;28;5070;-67
2023/12/18 08:11:52;;;;;;;;;;;;;;;;;;5049427;28;4537;-65
2023/12/18 08:14:17;;;;;;;;;;;;;;;;;;5061915;28;4675;-66
2023/12/18 08:16:42;;;;;;;;;;;;;;;;;;5065544;28;4512;-65
2023/12/18 08:19:08;;;;;;;;;;;;;;;;;;5064502;28;3315;-65
2023/12/18 08:21:33;;;;;;;;;;;;;;;;;;5067044;28;5073;-66
2023/12/18 08:23:58;;;;;;;;;;;;;;;;;;5068208;28;5053;-65
2023/12/18 08:26:24;;;;;;;;;;;;;;;;;;5067370;28;4588;-66
2023/12/18 08:28:50;;;;;;;;;;;;;;;;;;5059861;28;4758;-66
2023/12/18 08:31:15;;;;;;;;;;;;;;;;;;5081124;28;1151;-65
2023/12/18 08:33:41;;;;;;;;;;;;;;;;;;5060115;28;4440;-65
2023/12/18 08:36:06;;;;;;;;;;;;;;;;;;5066936;28;4481;-64
2023/12/18 08:38:31;;;;;;;;;;;;;;;;;;5067083;28;5064;-66
2023/12/18 08:40:57;;;;;;;;;;;;;;;;;;5056542;28;4991;-66
2023/12/18 08:43:22;;;;;;;;;;;;;;;;;;5053295;28;4671;-65
2023/12/18 08:45:47;;;;;;;;;;;;;;;;;;5060082;28;3449;-68
2023/12/18 08:48:13;;;;;;;;;;;;;;;;;;5053235;28;5171;-64
2023/12/18 08:50:38;;;;;;;;;;;;;;;;;;5064292;28;5218;-65
2023/12/18 08:53:03;;;;;;;;;;;;;;;;;;5054416;28;5214;-66
2023/12/18 08:55:29;;;;;;;;;;;;;;;;;;5052197;28;4657;-66
2023/12/18 08:57:55;;;;;;;;;;;;;;;;;;5040857;28;3675;-66
2023/12/18 09:00:22;;;;;;;;;;;;;;;;;;5051712;28;5044;-65
2023/12/18 09:02:47;;;;;;;;;;;;;;;;;;5057980;28;4546;-66
2023/12/18 09:05:12;;;;;;;;;;;;;;;;;;5040593;28;4666;-65
2023/12/18 09:07:38;;;;;;;;;;;;;;;;;;5063232;28;4551;-67
2023/12/18 09:10:03;;;;;;;;;;;;;;;;;;5065630;28;1315;-66
2023/12/18 09:12:28;;;;;;;;;;;;;;;;;;5053967;28;4662;-66
2023/12/18 09:14:54;;;;;;;;;;;;;;;;;;5048124;28;4606;-66
2023/12/18 09:17:19;;;;;;;;;;;;;;;;;;5055552;28;5064;-64
2023/12/18 09:19:44;;;;;;;;;;;;;;;;;;5050449;28;5154;-65
2023/12/18 09:22:09;;;;;;;;;;;;;;;;;;5040298;28;2720;-65
2023/12/18 09:24:35;;;;;;;;;;;;;;;;;;5049075;28;5182;-64
2023/12/18 09:27:00;;;;;;;;;;;;;;;;;;5049355;28;4557;-67
2023/12/18 09:29:25;;;;;;;;;;;;;;;;;;5046123;28;4506;-65
2023/12/18 09:31:51;;;;;;;;;;;;;;;;;;5053474;28;4987;-66
2023/12/18 09:34:16;;;;;;;;;;;;;;;;;;5049302;28;2417;-65
2023/12/18 09:36:41;;;;;;;;;;;;;;;;;;5047513;28;4809;-66
2023/12/18 09:39:07;;;;;;;;;;;;;;;;;;5051532;28;4544;-65
2023/12/18 09:41:32;;;;;;;;;;;;;;;;;;5063355;28;4726;-65
2023/12/18 09:43:57;;;;;;;;;;;;;;;;;;5046873;28;4532;-67
2023/12/18 09:46:23;;;;;;;;;;;;;;;;;;5061138;28;5098;-65
2023/12/18 09:48:49;;;;;;;;;;;;;;;;;;5045986;28;2940;-65
2023/12/18 09:51:15;;;;;;;;;;;;;;;;;;5028384;28;5192;-66
2023/12/18 09:53:41;;;;;;;;;;;;;;;;;;5048053;28;5452;-66
2023/12/18 09:56:06;;;;;;;;;;;;;;;;;;5047237;28;5046;-66
2023/12/18 09:58:32;;;;;;;;;;;;;;;;;;5054541;28;4687;-64
2023/12/18 10:00:57;;;;;;;;;;;;;;;;;;5065105;28;1378;-66
2023/12/18 10:03:22;;;;;;;;;;;;;;;;;;5036755;28;4510;-64
2023/12/18 10:05:49;;;;;;;;;;;;;;;;;;5048693;28;4640;-66
2023/12/18 10:08:15;;;;;;;;;;;;;;;;;;5050339;28;5473;-66
2023/12/18 10:10:42;;;;;;;;;;;;;;;;;;5063065;28;5080;-65
2023/12/18 10:13:09;;;;;;;;;;;;;;;;;;5076729;28;1175;-65
2023/12/18 10:15:35;;;;;;;;;;;;;;;;;;5055534;28;4683;-67
2023/12/18 10:18:01;;;;;;;;;;;;;;;;;;5049773;28;5193;-65
2023/12/18 10:20:27;;;;;;;;;;;;;;;;;;5066047;28;4536;-67
2023/12/18 10:22:52;;;;;;;;;;;;;;;;;;5049038;28;5060;-67
2023/12/18 10:25:18;;;;;;;;;;;;;;;;;;5056198;28;4743;-66
2023/12/18 10:27:43;;;;;;;;;;;;;;;;;;5076580;28;3157;-66
2023/12/18 10:30:09;;;;;;;;;;;;;;;;;;5072078;28;5196;-67
2023/12/18 10:32:39;;;;;;;;;;;;;;;;;;5059427;28;5095;-67
2023/12/18 10:35:05;;;;;;;;;;;;;;;;;;5049910;28;5217;-67
2023/12/18 10:37:32;;;;;;;;;;;;;;;;;;5054107;28;5022;-65
2023/12/18 10:40:03;;;;;;;;;;;;;;;;;;5039761;28;3294;-67
2023/12/18 10:42:39;;;;;;;;;;;;;;;;;;5052545;28;4682;-71
2023/12/18 10:45:07;;;;;;;;;;;;;;;;;;5053647;28;4798;-70
2023/12/18 10:47:32;;;;;;;;;;;;;;;;;;5052509;28;5174;-66
2023/12/18 10:50:01;;;;;;;;;;;;;;;;;;5034115;28;4544;-69
2023/12/18 10:52:30;;;;;;;;;;;;;;;;;;5065968;28;5071;-68
2023/12/18 10:54:59;;;;;;;;;;;;;;;;;;5050165;28;3341;-73
2023/12/18 10:57:24;;;;;;;;;;;;;;;;;;5045750;28;5009;-65
2023/12/18 10:59:50;;;;;;;;;;;;;;;;;;5042168;28;5025;-65
2023/12/18 11:02:15;;;;;;;;;;;;;;;;;;5060980;28;5101;-66
2023/12/18 11:04:42;;;;;;;;;;;;;;;;;;5031180;28;4528;-68
2023/12/18 11:07:07;;;;;;;;;;;;;;;;;;5073992;28;3375;-69
2023/12/18 11:09:33;;;;;;;;;;;;;;;;;;5077800;28;5025;-68
2023/12/18 11:11:58;;;;;;;;;;;;;;;;;;5063583;28;5071;-63
2023/12/18 11:14:28;;;;;;;;;;;;;;;;;;5078516;28;5250;-64
2023/12/18 11:17:02;;;;;;;;;;;;;;;;;;5071675;28;5112;-64
2023/12/18 11:19:34;;;;;;;;;;;;;;;;;;5060020;28;5146;-60
2023/12/18 11:22:04;;;;;;;;;;;;;;;;;;5084092;28;3447;-60
2023/12/18 11:24:34;;;;;;;;;;;;;;;;;;5070976;28;5248;-60
2023/12/18 11:26:59;;;;;;;;;;;;;;;;;;5066615;28;4477;-61
2023/12/18 11:29:31;;;;;;;;;;;;;;;;;;5063706;28;5119;-60
2023/12/18 11:31:57;;;;;;;;;;;;;;;;;;5073707;28;5024;-64
2023/12/18 11:34:23;;;;;;;;;;;;;;;;;;5066074;28;5137;-61
2023/12/18 11:36:49;;;;;;;;;;;;;;;;;;5065859;28;1105;-61
2023/12/18 11:39:14;;;;;;;;;;;;;;;;;;5084222;28;5102;-60
2023/12/18 11:41:40;;;;;;;;;;;;;;;;;;5069752;28;5191;-62
2023/12/18 11:44:06;;;;;;;;;;;;;;;;;;5067494;28;4998;-61
2023/12/18 11:46:32;;;;;;;;;;;;;;;;;;5066328;28;5050;-61
2023/12/18 11:48:57;;;;;;;;;;;;;;;;;;5075126;28;3483;-61
2023/12/18 11:51:23;;;;;;;;;;;;;;;;;;5084336;28;5103;-61
2023/12/18 11:53:56;;;;;;;;;;;;;;;;;;5068202;28;5123;-63
2023/12/18 11:56:22;;;;;;;;;;;;;;;;;;5060451;28;5052;-61
2023/12/18 11:58:47;;;;;;;;;;;;;;;;;;5061848;28;5108;-61
2023/12/18 12:01:13;;;;;;;;;;;;;;;;;;5038228;28;1353;-60
2023/12/18 12:03:38;;;;;;;;;;;;;;;;;;5065236;28;4913;-61
2023/12/18 12:06:06;;;;;;;;;;;;;;;;;;5084187;28;5514;-61
2023/12/18 12:08:31;;;;;;;;;;;;;;;;;;5068802;28;5145;-61
2023/12/18 12:10:57;;;;;;;;;;;;;;;;;;5068549;28;5047;-61
2023/12/18 12:13:24;;;;;;;;;;;;;;;;;;5059704;28;5212;-60
2023/12/18 12:15:55;;;;;;;;;;;;;;;;;;5069874;28;1156;-61
2023/12/18 12:18:21;;;;;;;;;;;;;;;;;;5067098;28;4488;-60
2023/12/18 12:20:47;;;;;;;;;;;;;;;;;;5068141;28;5074;-61
2023/12/18 12:23:12;;;;;;;;;;;;;;;;;;5066856;28;5039;-62
2023/12/18 12:25:38;;;;;;;;;;;;;;;;;;5063098;28;5064;-60
2023/12/18 12:28:03;;;;;;;;;;;;;;;;;;5037603;28;3441;-61
2023/12/18 12:30:29;;;;;;;;;;;;;;;;;;5066029;28;4993;-62
2023/12/18 12:32:54;;;;;;;;;;;;;;;;;;5068781;28;4508;-61
2023/12/18 12:35:19;;;;;;;;;;;;;;;;;;5078778;28;4672;-61
2023/12/18 12:37:45;;;;;;;;;;;;;;;;;;5067166;28;5689;-61
2023/12/18 12:40:11;;;;;;;;;;;;;;;;;;5066014;28;3466;-62
2023/12/18 12:42:38;;;;;;;;;;;;;;;;;;5055072;28;5159;-62
2023/12/18 12:45:04;;;;;;;;;;;;;;;;;;5061725;28;4676;-62
2023/12/18 12:47:29;;;;;;;;;;;;;;;;;;5068114;28;5430;-61
2023/12/18 12:49:54;;;;;;;;;;;;;;;;;;5064820;28;4537;-60
2023/12/18 12:52:20;;;;;;;;;;;;;;;;;;5065626;28;5274;-62
2023/12/18 12:54:46;;;;;;;;;;;;;;;;;;5065249;28;1531;-62
2023/12/18 12:57:12;;;;;;;;;;;;;;;;;;5062275;28;5001;-61
2023/12/18 12:59:47;;;;;;;;;;;;;;;;;;5044224;28;4915;-60
2023/12/18 13:02:12;;;;;;;;;;;;;;;;;;5077401;28;5144;-60
2023/12/18 13:04:38;;;;;;;;;;;;;;;;;;5064653;28;5102;-60
2023/12/18 13:07:03;;;;;;;;;;;;;;;;;;5067961;28;1906;-61
2023/12/18 13:09:29;;;;;;;;;;;;;;;;;;5061884;28;5025;-60
2023/12/18 13:11:54;;;;;;;;;;;;;;;;;;5064636;28;5061;-61
2023/12/18 13:14:20;;;;;;;;;;;;;;;;;;5067532;28;4649;-60
2023/12/18 13:16:45;;;;;;;;;;;;;;;;;;5049582;28;5142;-60
2023/12/18 13:19:12;;;;;;;;;;;;;;;;;;5062582;28;3476;-61
2023/12/18 13:21:37;;;;;;;;;;;;;;;;;;5065316;28;4997;-60
2023/12/18 13:24:03;;;;;;;;;;;;;;;;;;5059763;28;5070;-62
2023/12/18 13:26:28;;;;;;;;;;;;;;;;;;5061250;28;5165;-61
2023/12/18 13:28:53;;;;;;;;;;;;;;;;;;5058575;28;5191;-60
2023/12/18 13:31:19;;;;;;;;;;;;;;;;;;5061516;28;4642;-62
2023/12/18 13:33:46;;;;;;;;;;;;;;;;;;5065846;28;3369;-61
2023/12/18 13:36:11;;;;;;;;;;;;;;;;;;5064442;28;5019;-63
2023/12/18 13:38:36;;;;;;;;;;;;;;;;;;5052656;28;5099;-62
2023/12/18 13:41:02;;;;;;;;;;;;;;;;;;5067496;28;4464;-61
2023/12/18 13:43:27;;;;;;;;;;;;;;;;;;5067149;28;4470;-64
2023/12/18 13:45:52;;;;;;;;;;;;;;;;;;5058654;28;1495;-61
2023/12/18 13:48:18;;;;;;;;;;;;;;;;;;5049054;28;5187;-61
2023/12/18 13:50:43;;;;;;;;;;;;;;;;;;5064661;28;4536;-62
2023/12/18 13:53:09;;;;;;;;;;;;;;;;;;5056263;28;5084;-61
2023/12/18 13:55:34;;;;;;;;;;;;;;;;;;5063283;28;5124;-61
2023/12/18 13:57:59;;;;;;;;;;;;;;;;;;5082984;28;1159;-61
2023/12/18 14:00:25;;;;;;;;;;;;;;;;;;5064620;28;5087;-61
2023/12/18 14:02:50;;;;;;;;;;;;;;;;;;5065178;28;4501;-60
2023/12/18 14:05:15;;;;;;;;;;;;;;;;;;5063290;28;5114;-61
2023/12/18 14:07:40;;;;;;;;;;;;;;;;;;5061398;28;4572;-60
2023/12/18 14:10:07;;;;;;;;;;;;;;;;;;5061929;28;1109;-60
2023/12/18 14:12:33;;;;;;;;;;;;;;;;;;5061562;28;4448;-60
2023/12/18 14:14:59;;;;;;;;;;;;;;;;;;5066741;28;4457;-61
2023/12/18 14:17:24;;;;;;;;;;;;;;;;;;5059211;28;5277;-61
2023/12/18 14:19:49;;;;;;;;;;;;;;;;;;5057767;28;5055;-60
2023/12/18 14:22:15;;;;;;;;;;;;;;;;;;5059003;28;3466;-61
2023/12/18 14:24:41;;;;;;;;;;;;;;;;;;5064312;28;5226;-60
2023/12/18 14:27:06;;;;;;;;;;;;;;;;;;5060307;28;5031;-60
2023/12/18 14:29:31;;;;;;;;;;;;;;;;;;5062211;28;4531;-60
2023/12/18 14:31:57;;;;;;;;;;;;;;;;;;5058619;28;5152;-61
2023/12/18 14:34:22;;;;;;;;;;;;;;;;;;5059580;28;4537;-61
2023/12/18 14:36:47;;;;;;;;;;;;;;;;;;5067583;28;1924;-60
2023/12/18 14:39:12;;;;;;;;;;;;;;;;;;5066788;28;4967;-61
2023/12/18 14:41:38;;;;;;;;;;;;;;;;;;5065117;28;5027;-61
2023/12/18 14:44:03;;;;;;;;;;;;;;;;;;5058865;28;5000;-60
2023/12/18 14:46:28;;;;;;;;;;;;;;;;;;5065366;28;5496;-62
2023/12/18 14:48:54;;;;;;;;;;;;;;;;;;5081552;28;1205;-61
2023/12/18 14:51:20;;;;;;;;;;;;;;;;;;5041108;28;5147;-63
2023/12/18 14:53:45;;;;;;;;;;;;;;;;;;5068089;28;5161;-61
2023/12/18 14:56:10;;;;;;;;;;;;;;;;;;5066984;28;5083;-61
2023/12/18 14:58:36;;;;;;;;;;;;;;;;;;5068211;28;4986;-61
2023/12/18 15:01:01;;;;;;;;;;;;;;;;;;5064863;28;3297;-61
2023/12/18 15:03:26;;;;;;;;;;;;;;;;;;5059436;28;4834;-60
2023/12/18 15:05:51;;;;;;;;;;;;;;;;;;5067454;28;4931;-63
2023/12/18 15:08:17;;;;;;;;;;;;;;;;;;5064125;28;4555;-61
2023/12/18 15:10:42;;;;;;;;;;;;;;;;;;5065848;28;5022;-61
2023/12/18 15:13:08;;;;;;;;;;;;;;;;;;5070519;28;1230;-61
2023/12/18 15:15:33;;;;;;;;;;;;;;;;;;5067685;28;5101;-61
2023/12/18 15:17:58;;;;;;;;;;;;;;;;;;5044752;28;5316;-61
2023/12/18 15:20:24;;;;;;;;;;;;;;;;;;5068063;28;5123;-62
2023/12/18 15:22:49;;;;;;;;;;;;;;;;;;5065777;28;5063;-61
2023/12/18 15:25:14;;;;;;;;;;;;;;;;;;5066009;28;2258;-62
2023/12/18 15:27:40;;;;;;;;;;;;;;;;;;5069159;28;4955;-62
2023/12/18 15:30:05;;;;;;;;;;;;;;;;;;5065853;28;4973;-60
2023/12/18 15:32:31;;;;;;;;;;;;;;;;;;5062951;28;4725;-60
2023/12/18 15:34:56;;;;;;;;;;;;;;;;;;5068812;28;4897;-61
2023/12/18 15:37:22;;;;;;;;;;;;;;;;;;5067283;28;5077;-60
2023/12/18 15:39:47;;;;;;;;;;;;;;;;;;5061534;28;3348;-62
2023/12/18 15:42:13;;;;;;;;;;;;;;;;;;5063807;28;5295;-61
2023/12/18 15:44:39;;;;;;;;;;;;;;;;;;5042571;28;5090;-61
2023/12/18 15:47:04;;;;;;;;;;;;;;;;;;5068901;28;4632;-62
2023/12/18 15:49:29;;;;;;;;;;;;;;;;;;5069497;28;5303;-60
2023/12/18 15:51:55;;;;;;;;;;;;;;;;;;5072199;28;5028;-60
2023/12/18 15:54:21;;;;;;;;;;;;;;;;;;5059459;28;5118;-61
2023/12/18 15:56:46;;;;;;;;;;;;;;;;;;5050317;28;5086;-60
2023/12/18 15:59:12;;;;;;;;;;;;;;;;;;5058890;28;4521;-61
2023/12/18 16:01:43;;;;;;;;;;;;;;;;;;5067803;28;5517;-61
2023/12/18 16:04:08;;;;;;;;;;;;;;;;;;5060727;28;3758;-60
2023/12/18 16:06:34;;;;;;;;;;;;;;;;;;5062276;28;5046;-60
2023/12/18 16:08:59;;;;;;;;;;;;;;;;;;5068608;28;4549;-60
2023/12/18 16:11:24;;;;;;;;;;;;;;;;;;5066763;28;5080;-60
2023/12/18 16:13:50;;;;;;;;;;;;;;;;;;5042887;28;4986;-59
2023/12/18 16:16:15;;;;;;;;;;;;;;;;;;5067276;28;1207;-61
2023/12/18 16:18:40;;;;;;;;;;;;;;;;;;5068283;28;4804;-60
2023/12/18 16:21:05;;;;;;;;;;;;;;;;;;5062735;28;5443;-61
2023/12/18 16:23:31;;;;;;;;;;;;;;;;;;5070266;28;5076;-60
2023/12/18 16:25:56;;;;;;;;;;;;;;;;;;5066469;28;4946;-62
2023/12/18 16:28:21;;;;;;;;;;;;;;;;;;5055880;28;5132;-60
2023/12/18 16:30:49;;;;;;;;;;;;;;;;;;5062258;28;3364;-61
2023/12/18 16:33:14;;;;;;;;;;;;;;;;;;5057107;28;5067;-61
2023/12/18 16:35:39;;;;;;;;;;;;;;;;;;5084053;28;5121;-61
2023/12/18 16:38:05;;;;;;;;;;;;;;;;;;5055814;28;5117;-60
2023/12/18 16:40:30;;;;;;;;;;;;;;;;;;5060779;28;5162;-61
2023/12/18 16:42:55;;;;;;;;;;;;;;;;;;5064446;28;1176;-61
2023/12/18 16:45:21;;;;;;;;;;;;;;;;;;5063278;28;4748;-62
2023/12/18 16:47:46;;;;;;;;;;;;;;;;;;5066909;28;5079;-61
2023/12/18 16:50:11;;;;;;;;;;;;;;;;;;5062865;28;5176;-61
2023/12/18 16:52:37;;;;;;;;;;;;;;;;;;5058518;28;5129;-60